sensor_id;sensor_type;location;lat;lon;timestamp;P1;durP1;ratioP1;P2;durP2;ratioP2
43678;SDS011;29279;50.858;4.392;2022-12-18T00:00:30;78.82;;;34.97;;
43678;SDS011;29279;50.858;4.392;2022-12-18T00:02:55;81.60;;;35.67;;
43678;SDS011;29279;50.858;4.392;2022-12-18T00:05:21;83.45;;;36.67;;
43678;SDS011;29279;50.858;4.392;2022-12-18T00:07:47;78.78;;;34.30;;
43678;SDS011;29279;50.858;4.392;2022-12-18T00:10:12;71.87;;;31.83;;
43678;SDS011;29279;50.858;4.392;2022-12-18T00:12:38;78.60;;;35.00;;
43678;SDS011;29279;50.858;4.392;2022-12-18T00:15:03;85.53;;;33.60;;
43678;SDS011;29279;50.858;4.392;2022-12-18T00:17:29;75.40;;;31.90;;
43678;SDS011;29279;50.858;4.392;2022-12-18T00:19:55;65.70;;;30.50;;
43678;SDS011;29279;50.858;4.392;2022-12-18T00:22:21;63.33;;;27.40;;
43678;SDS011;29279;50.858;4.392;2022-12-18T00:24:46;56.37;;;25.00;;
43678;SDS011;29279;50.858;4.392;2022-12-18T00:27:12;57.63;;;26.33;;
43678;SDS011;29279;50.858;4.392;2022-12-18T00:29:38;61.30;;;26.57;;
43678;SDS011;29279;50.858;4.392;2022-12-18T00:32:03;56.07;;;23.43;;
43678;SDS011;29279;50.858;4.392;2022-12-18T00:34:29;51.33;;;21.47;;
43678;SDS011;29279;50.858;4.392;2022-12-18T00:36:55;47.07;;;21.30;;
43678;SDS011;29279;50.858;4.392;2022-12-18T00:39:20;26.70;;;12.10;;
43678;SDS011;29279;50.858;4.392;2022-12-18T00:41:46;37.03;;;15.90;;
43678;SDS011;29279;50.858;4.392;2022-12-18T00:44:30;41.17;;;16.10;;
43678;SDS011;29279;50.858;4.392;2022-12-18T00:46:56;49.57;;;22.03;;
43678;SDS011;29279;50.858;4.392;2022-12-18T00:49:21;39.67;;;17.27;;
43678;SDS011;29279;50.858;4.392;2022-12-18T00:51:47;46.70;;;16.30;;
43678;SDS011;29279;50.858;4.392;2022-12-18T00:54:13;40.30;;;17.53;;
43678;SDS011;29279;50.858;4.392;2022-12-18T00:56:40;33.77;;;16.87;;
43678;SDS011;29279;50.858;4.392;2022-12-18T00:59:05;33.50;;;16.40;;
43678;SDS011;29279;50.858;4.392;2022-12-18T01:01:31;34.50;;;14.87;;
43678;SDS011;29279;50.858;4.392;2022-12-18T01:03:57;39.03;;;16.20;;
43678;SDS011;29279;50.858;4.392;2022-12-18T01:06:24;36.07;;;15.83;;
43678;SDS011;29279;50.858;4.392;2022-12-18T01:08:50;36.47;;;16.23;;
43678;SDS011;29279;50.858;4.392;2022-12-18T01:11:16;31.53;;;14.33;;
43678;SDS011;29279;50.858;4.392;2022-12-18T01:13:44;30.20;;;14.80;;
43678;SDS011;29279;50.858;4.392;2022-12-18T01:16:14;34.03;;;13.07;;
43678;SDS011;29279;50.858;4.392;2022-12-18T01:18:41;28.77;;;12.23;;
43678;SDS011;29279;50.858;4.392;2022-12-18T01:21:08;33.97;;;13.70;;
43678;SDS011;29279;50.858;4.392;2022-12-18T01:23:35;35.00;;;14.40;;
43678;SDS011;29279;50.858;4.392;2022-12-18T01:26:07;32.20;;;14.63;;
43678;SDS011;29279;50.858;4.392;2022-12-18T01:28:38;31.50;;;13.87;;
43678;SDS011;29279;50.858;4.392;2022-12-18T01:31:11;30.27;;;14.03;;
43678;SDS011;29279;50.858;4.392;2022-12-18T01:33:39;34.23;;;15.10;;
43678;SDS011;29279;50.858;4.392;2022-12-18T01:36:05;28.30;;;13.77;;
43678;SDS011;29279;50.858;4.392;2022-12-18T01:38:31;32.53;;;13.57;;
43678;SDS011;29279;50.858;4.392;2022-12-18T01:40:58;34.50;;;15.00;;
43678;SDS011;29279;50.858;4.392;2022-12-18T01:43:43;27.43;;;10.57;;
43678;SDS011;29279;50.858;4.392;2022-12-18T01:46:15;26.07;;;11.60;;
43678;SDS011;29279;50.858;4.392;2022-12-18T01:48:43;28.17;;;12.17;;
43678;SDS011;29279;50.858;4.392;2022-12-18T01:51:12;25.30;;;11.77;;
43678;SDS011;29279;50.858;4.392;2022-12-18T01:53:38;24.83;;;10.47;;
43678;SDS011;29279;50.858;4.392;2022-12-18T01:56:06;25.27;;;11.87;;
43678;SDS011;29279;50.858;4.392;2022-12-18T01:59:06;28.00;;;11.93;;
43678;SDS011;29279;50.858;4.392;2022-12-18T02:01:27;29.80;;;12.83;;
43678;SDS011;29279;50.858;4.392;2022-12-18T02:03:55;28.87;;;13.20;;
43678;SDS011;29279;50.858;4.392;2022-12-18T02:06:27;28.63;;;13.53;;
43678;SDS011;29279;50.858;4.392;2022-12-18T02:17:38;35.30;;;15.53;;
43678;SDS011;29279;50.858;4.392;2022-12-18T02:28:46;37.07;;;15.30;;
43678;SDS011;29279;50.858;4.392;2022-12-18T02:31:23;28.17;;;13.60;;
43678;SDS011;29279;50.858;4.392;2022-12-18T02:33:53;41.43;;;15.13;;
43678;SDS011;29279;50.858;4.392;2022-12-18T02:36:21;29.53;;;14.60;;
43678;SDS011;29279;50.858;4.392;2022-12-18T02:38:49;34.80;;;14.57;;
43678;SDS011;29279;50.858;4.392;2022-12-18T02:41:16;29.57;;;14.87;;
43678;SDS011;29279;50.858;4.392;2022-12-18T02:43:47;30.13;;;15.27;;
43678;SDS011;29279;50.858;4.392;2022-12-18T02:46:28;29.27;;;14.40;;
43678;SDS011;29279;50.858;4.392;2022-12-18T02:49:21;30.23;;;14.10;;
43678;SDS011;29279;50.858;4.392;2022-12-18T02:51:56;31.80;;;14.13;;
43678;SDS011;29279;50.858;4.392;2022-12-18T02:54:32;34.37;;;13.83;;
43678;SDS011;29279;50.858;4.392;2022-12-18T02:59:59;35.57;;;15.00;;
43678;SDS011;29279;50.858;4.392;2022-12-18T03:02:32;27.70;;;13.80;;
43678;SDS011;29279;50.858;4.392;2022-12-18T03:05:10;34.10;;;14.93;;
43678;SDS011;29279;50.858;4.392;2022-12-18T03:07:50;32.87;;;14.53;;
43678;SDS011;29279;50.858;4.392;2022-12-18T03:10:21;32.17;;;15.30;;
43678;SDS011;29279;50.858;4.392;2022-12-18T03:13:04;28.95;;;13.73;;
43678;SDS011;29279;50.858;4.392;2022-12-18T03:15:44;26.77;;;14.77;;
43678;SDS011;29279;50.858;4.392;2022-12-18T03:18:19;32.27;;;14.37;;
43678;SDS011;29279;50.858;4.392;2022-12-18T03:20:49;33.77;;;14.57;;
43678;SDS011;29279;50.858;4.392;2022-12-18T03:23:19;26.23;;;13.40;;
43678;SDS011;29279;50.858;4.392;2022-12-18T03:25:50;30.30;;;13.60;;
43678;SDS011;29279;50.858;4.392;2022-12-18T03:28:22;23.17;;;9.90;;
43678;SDS011;29279;50.858;4.392;2022-12-18T03:30:52;28.33;;;13.70;;
43678;SDS011;29279;50.858;4.392;2022-12-18T03:35:56;26.33;;;12.90;;
43678;SDS011;29279;50.858;4.392;2022-12-18T03:38:22;30.50;;;13.97;;
43678;SDS011;29279;50.858;4.392;2022-12-18T03:46:11;34.30;;;14.87;;
43678;SDS011;29279;50.858;4.392;2022-12-18T03:49:08;30.40;;;13.50;;
43678;SDS011;29279;50.858;4.392;2022-12-18T03:52:01;33.77;;;15.90;;
43678;SDS011;29279;50.858;4.392;2022-12-18T03:54:31;30.73;;;14.50;;
43678;SDS011;29279;50.858;4.392;2022-12-18T03:57:05;31.00;;;13.83;;
43678;SDS011;29279;50.858;4.392;2022-12-18T03:59:36;29.03;;;12.53;;
43678;SDS011;29279;50.858;4.392;2022-12-18T04:02:03;31.20;;;13.20;;
43678;SDS011;29279;50.858;4.392;2022-12-18T04:04:33;27.00;;;12.27;;
43678;SDS011;29279;50.858;4.392;2022-12-18T04:07:00;27.87;;;11.87;;
43678;SDS011;29279;50.858;4.392;2022-12-18T04:09:26;26.27;;;12.03;;
43678;SDS011;29279;50.858;4.392;2022-12-18T04:11:53;21.50;;;11.77;;
43678;SDS011;29279;50.858;4.392;2022-12-18T04:14:19;30.47;;;12.60;;
43678;SDS011;29279;50.858;4.392;2022-12-18T04:16:45;26.43;;;12.30;;
43678;SDS011;29279;50.858;4.392;2022-12-18T04:19:11;24.03;;;11.90;;
43678;SDS011;29279;50.858;4.392;2022-12-18T04:21:36;26.37;;;12.63;;
43678;SDS011;29279;50.858;4.392;2022-12-18T04:24:02;26.40;;;12.17;;
43678;SDS011;29279;50.858;4.392;2022-12-18T04:26:28;28.17;;;12.07;;
43678;SDS011;29279;50.858;4.392;2022-12-18T04:28:53;26.90;;;12.07;;
43678;SDS011;29279;50.858;4.392;2022-12-18T04:31:19;28.97;;;13.37;;
43678;SDS011;29279;50.858;4.392;2022-12-18T04:33:45;24.17;;;11.37;;
43678;SDS011;29279;50.858;4.392;2022-12-18T04:36:10;26.77;;;12.80;;
43678;SDS011;29279;50.858;4.392;2022-12-18T04:38:37;26.83;;;12.20;;
43678;SDS011;29279;50.858;4.392;2022-12-18T04:41:03;26.77;;;11.30;;
43678;SDS011;29279;50.858;4.392;2022-12-18T04:43:28;27.17;;;12.47;;
43678;SDS011;29279;50.858;4.392;2022-12-18T04:46:00;25.43;;;12.20;;
43678;SDS011;29279;50.858;4.392;2022-12-18T04:48:27;26.90;;;13.17;;
43678;SDS011;29279;50.858;4.392;2022-12-18T04:50:53;26.30;;;13.77;;
43678;SDS011;29279;50.858;4.392;2022-12-18T04:53:18;28.50;;;12.30;;
43678;SDS011;29279;50.858;4.392;2022-12-18T04:55:44;25.87;;;12.23;;
43678;SDS011;29279;50.858;4.392;2022-12-18T04:58:10;27.57;;;12.03;;
43678;SDS011;29279;50.858;4.392;2022-12-18T05:00:35;26.73;;;12.23;;
43678;SDS011;29279;50.858;4.392;2022-12-18T05:03:01;26.00;;;11.97;;
43678;SDS011;29279;50.858;4.392;2022-12-18T05:05:27;26.57;;;12.67;;
43678;SDS011;29279;50.858;4.392;2022-12-18T05:07:54;28.97;;;13.33;;
43678;SDS011;29279;50.858;4.392;2022-12-18T05:10:19;25.30;;;12.80;;
43678;SDS011;29279;50.858;4.392;2022-12-18T05:12:45;26.30;;;11.73;;
43678;SDS011;29279;50.858;4.392;2022-12-18T05:15:23;25.87;;;11.63;;
43678;SDS011;29279;50.858;4.392;2022-12-18T05:20:23;19.40;;;9.10;;
43678;SDS011;29279;50.858;4.392;2022-12-18T05:22:49;23.97;;;10.73;;
43678;SDS011;29279;50.858;4.392;2022-12-18T05:25:15;25.30;;;11.97;;
43678;SDS011;29279;50.858;4.392;2022-12-18T05:27:41;26.23;;;11.67;;
43678;SDS011;29279;50.858;4.392;2022-12-18T05:30:07;27.83;;;11.13;;
43678;SDS011;29279;50.858;4.392;2022-12-18T05:32:34;25.77;;;11.03;;
43678;SDS011;29279;50.858;4.392;2022-12-18T05:34:59;22.40;;;10.63;;
43678;SDS011;29279;50.858;4.392;2022-12-18T05:37:25;22.83;;;10.37;;
43678;SDS011;29279;50.858;4.392;2022-12-18T05:39:51;22.50;;;9.53;;
43678;SDS011;29279;50.858;4.392;2022-12-18T05:42:16;22.27;;;10.93;;
43678;SDS011;29279;50.858;4.392;2022-12-18T05:44:43;27.70;;;10.27;;
43678;SDS011;29279;50.858;4.392;2022-12-18T05:47:08;21.27;;;10.10;;
43678;SDS011;29279;50.858;4.392;2022-12-18T05:49:34;24.50;;;10.10;;
43678;SDS011;29279;50.858;4.392;2022-12-18T05:52:00;26.80;;;11.37;;
43678;SDS011;29279;50.858;4.392;2022-12-18T05:54:28;22.00;;;9.87;;
43678;SDS011;29279;50.858;4.392;2022-12-18T05:56:54;22.43;;;9.70;;
43678;SDS011;29279;50.858;4.392;2022-12-18T05:59:20;24.03;;;9.30;;
43678;SDS011;29279;50.858;4.392;2022-12-18T06:01:46;21.07;;;9.67;;
43678;SDS011;29279;50.858;4.392;2022-12-18T06:04:11;17.27;;;9.17;;
43678;SDS011;29279;50.858;4.392;2022-12-18T06:06:37;22.30;;;8.93;;
43678;SDS011;29279;50.858;4.392;2022-12-18T06:09:03;25.57;;;9.73;;
43678;SDS011;29279;50.858;4.392;2022-12-18T06:11:34;18.87;;;9.27;;
43678;SDS011;29279;50.858;4.392;2022-12-18T06:14:02;23.20;;;9.60;;
43678;SDS011;29279;50.858;4.392;2022-12-18T06:16:29;21.67;;;10.17;;
43678;SDS011;29279;50.858;4.392;2022-12-18T06:18:58;18.47;;;9.23;;
43678;SDS011;29279;50.858;4.392;2022-12-18T06:21:26;21.10;;;9.70;;
43678;SDS011;29279;50.858;4.392;2022-12-18T06:23:52;21.47;;;10.03;;
43678;SDS011;29279;50.858;4.392;2022-12-18T06:26:17;18.63;;;8.90;;
43678;SDS011;29279;50.858;4.392;2022-12-18T06:28:43;20.97;;;7.93;;
43678;SDS011;29279;50.858;4.392;2022-12-18T06:31:09;21.20;;;8.40;;
43678;SDS011;29279;50.858;4.392;2022-12-18T06:33:35;19.17;;;9.17;;
43678;SDS011;29279;50.858;4.392;2022-12-18T06:36:02;16.83;;;8.73;;
43678;SDS011;29279;50.858;4.392;2022-12-18T06:38:38;19.43;;;8.80;;
43678;SDS011;29279;50.858;4.392;2022-12-18T06:41:09;19.63;;;8.50;;
43678;SDS011;29279;50.858;4.392;2022-12-18T06:43:37;19.40;;;9.07;;
43678;SDS011;29279;50.858;4.392;2022-12-18T06:46:03;19.40;;;9.67;;
43678;SDS011;29279;50.858;4.392;2022-12-18T06:48:30;20.80;;;8.67;;
43678;SDS011;29279;50.858;4.392;2022-12-18T06:50:56;19.73;;;9.33;;
43678;SDS011;29279;50.858;4.392;2022-12-18T06:53:22;20.23;;;9.00;;
43678;SDS011;29279;50.858;4.392;2022-12-18T06:55:49;18.97;;;7.93;;
43678;SDS011;29279;50.858;4.392;2022-12-18T06:58:15;19.20;;;7.80;;
43678;SDS011;29279;50.858;4.392;2022-12-18T07:00:41;17.40;;;7.90;;
43678;SDS011;29279;50.858;4.392;2022-12-18T07:03:07;22.93;;;7.10;;
43678;SDS011;29279;50.858;4.392;2022-12-18T07:05:32;17.47;;;8.10;;
43678;SDS011;29279;50.858;4.392;2022-12-18T07:07:58;14.27;;;7.47;;
43678;SDS011;29279;50.858;4.392;2022-12-18T07:10:24;17.63;;;6.13;;
43678;SDS011;29279;50.858;4.392;2022-12-18T07:12:50;16.73;;;6.97;;
43678;SDS011;29279;50.858;4.392;2022-12-18T07:15:16;11.73;;;6.37;;
43678;SDS011;29279;50.858;4.392;2022-12-18T07:17:42;13.87;;;6.70;;
43678;SDS011;29279;50.858;4.392;2022-12-18T07:20:08;13.43;;;7.17;;
43678;SDS011;29279;50.858;4.392;2022-12-18T07:22:34;14.53;;;6.87;;
43678;SDS011;29279;50.858;4.392;2022-12-18T07:25:03;17.73;;;7.40;;
43678;SDS011;29279;50.858;4.392;2022-12-18T07:27:29;16.50;;;7.10;;
43678;SDS011;29279;50.858;4.392;2022-12-18T07:29:55;14.20;;;7.00;;
43678;SDS011;29279;50.858;4.392;2022-12-18T07:32:20;16.70;;;6.93;;
43678;SDS011;29279;50.858;4.392;2022-12-18T07:34:46;13.50;;;7.77;;
43678;SDS011;29279;50.858;4.392;2022-12-18T07:37:12;12.57;;;6.90;;
43678;SDS011;29279;50.858;4.392;2022-12-18T07:39:37;17.50;;;7.30;;
43678;SDS011;29279;50.858;4.392;2022-12-18T07:42:03;13.37;;;7.33;;
43678;SDS011;29279;50.858;4.392;2022-12-18T07:44:47;17.90;;;8.67;;
43678;SDS011;29279;50.858;4.392;2022-12-18T07:47:13;17.60;;;6.37;;
43678;SDS011;29279;50.858;4.392;2022-12-18T07:49:39;13.57;;;5.73;;
43678;SDS011;29279;50.858;4.392;2022-12-18T07:52:05;13.67;;;5.90;;
43678;SDS011;29279;50.858;4.392;2022-12-18T07:54:30;28.57;;;7.73;;
43678;SDS011;29279;50.858;4.392;2022-12-18T07:56:56;9.87;;;5.03;;
43678;SDS011;29279;50.858;4.392;2022-12-18T07:59:21;14.17;;;5.77;;
43678;SDS011;29279;50.858;4.392;2022-12-18T08:01:47;14.33;;;6.87;;
43678;SDS011;29279;50.858;4.392;2022-12-18T08:04:13;13.53;;;6.00;;
43678;SDS011;29279;50.858;4.392;2022-12-18T08:06:38;11.77;;;5.90;;
43678;SDS011;29279;50.858;4.392;2022-12-18T08:09:04;12.97;;;6.83;;
43678;SDS011;29279;50.858;4.392;2022-12-18T08:11:30;14.47;;;6.30;;
43678;SDS011;29279;50.858;4.392;2022-12-18T08:13:56;11.53;;;4.80;;
43678;SDS011;29279;50.858;4.392;2022-12-18T08:16:22;14.27;;;7.10;;
43678;SDS011;29279;50.858;4.392;2022-12-18T08:18:48;10.83;;;5.10;;
43678;SDS011;29279;50.858;4.392;2022-12-18T08:21:17;13.77;;;5.73;;
43678;SDS011;29279;50.858;4.392;2022-12-18T08:23:45;12.87;;;6.10;;
43678;SDS011;29279;50.858;4.392;2022-12-18T08:26:11;15.17;;;6.57;;
43678;SDS011;29279;50.858;4.392;2022-12-18T08:28:38;12.40;;;6.77;;
43678;SDS011;29279;50.858;4.392;2022-12-18T08:31:04;12.30;;;5.10;;
43678;SDS011;29279;50.858;4.392;2022-12-18T08:33:30;11.17;;;5.73;;
43678;SDS011;29279;50.858;4.392;2022-12-18T08:35:57;10.10;;;4.67;;
43678;SDS011;29279;50.858;4.392;2022-12-18T08:38:24;11.17;;;5.63;;
43678;SDS011;29279;50.858;4.392;2022-12-18T08:40:53;10.17;;;4.43;;
43678;SDS011;29279;50.858;4.392;2022-12-18T08:43:30;14.53;;;6.40;;
43678;SDS011;29279;50.858;4.392;2022-12-18T08:46:14;13.07;;;7.30;;
43678;SDS011;29279;50.858;4.392;2022-12-18T08:48:39;15.00;;;7.33;;
43678;SDS011;29279;50.858;4.392;2022-12-18T08:51:05;11.00;;;5.17;;
43678;SDS011;29279;50.858;4.392;2022-12-18T08:53:31;13.80;;;6.80;;
43678;SDS011;29279;50.858;4.392;2022-12-18T08:55:57;13.13;;;5.23;;
43678;SDS011;29279;50.858;4.392;2022-12-18T08:58:23;13.80;;;6.87;;
43678;SDS011;29279;50.858;4.392;2022-12-18T09:00:49;14.50;;;7.27;;
43678;SDS011;29279;50.858;4.392;2022-12-18T09:03:15;15.73;;;7.10;;
43678;SDS011;29279;50.858;4.392;2022-12-18T09:05:42;14.20;;;7.23;;
43678;SDS011;29279;50.858;4.392;2022-12-18T09:08:08;15.23;;;7.30;;
43678;SDS011;29279;50.858;4.392;2022-12-18T09:10:34;16.93;;;8.40;;
43678;SDS011;29279;50.858;4.392;2022-12-18T09:13:07;14.23;;;8.00;;
43678;SDS011;29279;50.858;4.392;2022-12-18T09:15:32;13.90;;;7.97;;
43678;SDS011;29279;50.858;4.392;2022-12-18T09:17:58;14.53;;;7.30;;
43678;SDS011;29279;50.858;4.392;2022-12-18T09:20:24;17.40;;;7.77;;
43678;SDS011;29279;50.858;4.392;2022-12-18T09:22:49;9.73;;;4.43;;
43678;SDS011;29279;50.858;4.392;2022-12-18T09:25:15;15.93;;;7.93;;
43678;SDS011;29279;50.858;4.392;2022-12-18T09:27:41;16.70;;;7.90;;
43678;SDS011;29279;50.858;4.392;2022-12-18T09:30:07;18.90;;;9.53;;
43678;SDS011;29279;50.858;4.392;2022-12-18T09:32:33;16.90;;;8.03;;
43678;SDS011;29279;50.858;4.392;2022-12-18T09:34:58;21.47;;;8.83;;
43678;SDS011;29279;50.858;4.392;2022-12-18T09:37:24;16.27;;;7.80;;
43678;SDS011;29279;50.858;4.392;2022-12-18T09:39:50;22.57;;;9.93;;
43678;SDS011;29279;50.858;4.392;2022-12-18T09:42:20;19.48;;;7.60;;
43678;SDS011;29279;50.858;4.392;2022-12-18T09:44:53;22.77;;;8.53;;
43678;SDS011;29279;50.858;4.392;2022-12-18T09:49:49;16.37;;;8.17;;
43678;SDS011;29279;50.858;4.392;2022-12-18T09:52:26;21.60;;;9.33;;
43678;SDS011;29279;50.858;4.392;2022-12-18T09:57:55;19.27;;;9.63;;
43678;SDS011;29279;50.858;4.392;2022-12-18T10:00:42;19.50;;;8.90;;
43678;SDS011;29279;50.858;4.392;2022-12-18T10:03:12;17.83;;;9.30;;
43678;SDS011;29279;50.858;4.392;2022-12-18T10:08:35;16.73;;;7.70;;
43678;SDS011;29279;50.858;4.392;2022-12-18T10:20:13;20.73;;;10.77;;
43678;SDS011;29279;50.858;4.392;2022-12-18T10:28:32;25.35;;;11.27;;
43678;SDS011;29279;50.858;4.392;2022-12-18T10:31:00;19.90;;;9.57;;
43678;SDS011;29279;50.858;4.392;2022-12-18T10:33:28;26.17;;;11.35;;
43678;SDS011;29279;50.858;4.392;2022-12-18T10:35:55;19.67;;;10.57;;
43678;SDS011;29279;50.858;4.392;2022-12-18T10:38:25;24.90;;;10.27;;
43678;SDS011;29279;50.858;4.392;2022-12-18T10:43:25;22.48;;;11.68;;
43678;SDS011;29279;50.858;4.392;2022-12-18T10:46:24;23.38;;;11.85;;
43678;SDS011;29279;50.858;4.392;2022-12-18T10:51:24;14.05;;;7.72;;
43678;SDS011;29279;50.858;4.392;2022-12-18T10:54:17;20.58;;;10.70;;
43678;SDS011;29279;50.858;4.392;2022-12-18T10:56:42;21.17;;;11.52;;
43678;SDS011;29279;50.858;4.392;2022-12-18T10:59:09;23.45;;;12.20;;
43678;SDS011;29279;50.858;4.392;2022-12-18T11:01:47;25.55;;;12.52;;
43678;SDS011;29279;50.858;4.392;2022-12-18T11:04:17;23.13;;;12.18;;
43678;SDS011;29279;50.858;4.392;2022-12-18T11:07:07;23.25;;;10.90;;
43678;SDS011;29279;50.858;4.392;2022-12-18T11:09:33;22.23;;;12.18;;
43678;SDS011;29279;50.858;4.392;2022-12-18T11:12:15;22.98;;;11.60;;
43678;SDS011;29279;50.858;4.392;2022-12-18T11:17:19;23.55;;;12.27;;
43678;SDS011;29279;50.858;4.392;2022-12-18T11:19:52;23.65;;;11.30;;
43678;SDS011;29279;50.858;4.392;2022-12-18T11:22:21;25.13;;;11.60;;
43678;SDS011;29279;50.858;4.392;2022-12-18T11:24:59;25.52;;;11.88;;
43678;SDS011;29279;50.858;4.392;2022-12-18T11:27:51;29.27;;;12.25;;
43678;SDS011;29279;50.858;4.392;2022-12-18T11:30:54;23.75;;;12.07;;
43678;SDS011;29279;50.858;4.392;2022-12-18T11:33:14;22.58;;;11.95;;
43678;SDS011;29279;50.858;4.392;2022-12-18T11:40:40;22.13;;;11.30;;
43678;SDS011;29279;50.858;4.392;2022-12-18T11:45:49;29.27;;;13.15;;
43678;SDS011;29279;50.858;4.392;2022-12-18T11:48:22;23.55;;;11.65;;
43678;SDS011;29279;50.858;4.392;2022-12-18T11:50:56;28.15;;;14.57;;
43678;SDS011;29279;50.858;4.392;2022-12-18T11:53:24;24.55;;;12.93;;
43678;SDS011;29279;50.858;4.392;2022-12-18T11:56:05;29.58;;;12.48;;
43678;SDS011;29279;50.858;4.392;2022-12-18T12:01:33;23.27;;;12.48;;
43678;SDS011;29279;50.858;4.392;2022-12-18T12:30:32;29.98;;;13.00;;
43678;SDS011;29279;50.858;4.392;2022-12-18T12:41:06;30.05;;;12.38;;
43678;SDS011;29279;50.858;4.392;2022-12-18T12:43:57;26.52;;;13.68;;
43678;SDS011;29279;50.858;4.392;2022-12-18T12:46:26;34.90;;;14.73;;
43678;SDS011;29279;50.858;4.392;2022-12-18T12:48:53;28.05;;;13.82;;
43678;SDS011;29279;50.858;4.392;2022-12-18T12:51:34;29.58;;;13.93;;
43678;SDS011;29279;50.858;4.392;2022-12-18T12:54:06;32.33;;;15.00;;
43678;SDS011;29279;50.858;4.392;2022-12-18T12:59:34;28.55;;;13.80;;
43678;SDS011;29279;50.858;4.392;2022-12-18T13:02:28;29.70;;;14.75;;
43678;SDS011;29279;50.858;4.392;2022-12-18T13:07:59;27.92;;;13.85;;
43678;SDS011;29279;50.858;4.392;2022-12-18T13:10:52;28.42;;;14.63;;
43678;SDS011;29279;50.858;4.392;2022-12-18T13:16:20;33.67;;;15.73;;
43678;SDS011;29279;50.858;4.392;2022-12-18T13:18:48;26.80;;;13.55;;
43678;SDS011;29279;50.858;4.392;2022-12-18T13:21:24;34.15;;;14.75;;
43678;SDS011;29279;50.858;4.392;2022-12-18T13:23:53;33.42;;;14.88;;
43678;SDS011;29279;50.858;4.392;2022-12-18T13:28:52;31.90;;;15.10;;
43678;SDS011;29279;50.858;4.392;2022-12-18T13:34:22;33.25;;;15.13;;
43678;SDS011;29279;50.858;4.392;2022-12-18T13:36:54;31.52;;;15.23;;
43678;SDS011;29279;50.858;4.392;2022-12-18T13:39:23;32.65;;;15.20;;
43678;SDS011;29279;50.858;4.392;2022-12-18T13:44:32;35.58;;;17.08;;
43678;SDS011;29279;50.858;4.392;2022-12-18T13:46:59;36.78;;;15.15;;
43678;SDS011;29279;50.858;4.392;2022-12-18T13:52:20;34.20;;;17.65;;
43678;SDS011;29279;50.858;4.392;2022-12-18T13:54:53;36.53;;;16.45;;
43678;SDS011;29279;50.858;4.392;2022-12-18T13:57:34;35.03;;;17.98;;
43678;SDS011;29279;50.858;4.392;2022-12-18T14:02:50;47.78;;;16.48;;
43678;SDS011;29279;50.858;4.392;2022-12-18T14:08:00;35.38;;;17.17;;
43678;SDS011;29279;50.858;4.392;2022-12-18T14:10:29;36.90;;;17.10;;
43678;SDS011;29279;50.858;4.392;2022-12-18T14:12:55;45.70;;;16.83;;
43678;SDS011;29279;50.858;4.392;2022-12-18T14:17:59;38.50;;;19.08;;
43678;SDS011;29279;50.858;4.392;2022-12-18T14:20:29;44.70;;;20.00;;
43678;SDS011;29279;50.858;4.392;2022-12-18T14:22:57;38.63;;;18.75;;
43678;SDS011;29279;50.858;4.392;2022-12-18T14:25:26;39.45;;;19.52;;
43678;SDS011;29279;50.858;4.392;2022-12-18T14:30:39;45.85;;;20.42;;
43678;SDS011;29279;50.858;4.392;2022-12-18T14:33:10;39.60;;;20.13;;
43678;SDS011;29279;50.858;4.392;2022-12-18T14:38:18;40.88;;;19.63;;
43678;SDS011;29279;50.858;4.392;2022-12-18T14:40:45;41.15;;;20.23;;
43678;SDS011;29279;50.858;4.392;2022-12-18T14:43:11;41.90;;;20.38;;
43678;SDS011;29279;50.858;4.392;2022-12-18T14:45:38;37.70;;;17.63;;
43678;SDS011;29279;50.858;4.392;2022-12-18T14:48:07;42.40;;;19.55;;
43678;SDS011;29279;50.858;4.392;2022-12-18T14:53:04;38.65;;;18.73;;
43678;SDS011;29279;50.858;4.392;2022-12-18T14:55:30;40.72;;;18.95;;
43678;SDS011;29279;50.858;4.392;2022-12-18T14:57:56;42.53;;;18.83;;
43678;SDS011;29279;50.858;4.392;2022-12-18T15:00:23;43.92;;;19.60;;
43678;SDS011;29279;50.858;4.392;2022-12-18T15:02:52;40.25;;;18.75;;
43678;SDS011;29279;50.858;4.392;2022-12-18T15:05:21;48.15;;;20.23;;
43678;SDS011;29279;50.858;4.392;2022-12-18T15:20:45;39.13;;;18.83;;
43678;SDS011;29279;50.858;4.392;2022-12-18T15:23:17;43.25;;;18.38;;
43678;SDS011;29279;50.858;4.392;2022-12-18T15:25:44;40.13;;;19.15;;
43678;SDS011;29279;50.858;4.392;2022-12-18T15:31:02;46.67;;;20.13;;
43678;SDS011;29279;50.858;4.392;2022-12-18T15:33:40;44.55;;;20.05;;
43678;SDS011;29279;50.858;4.392;2022-12-18T15:36:12;44.15;;;19.35;;
43678;SDS011;29279;50.858;4.392;2022-12-18T15:38:39;40.88;;;18.77;;
43678;SDS011;29279;50.858;4.392;2022-12-18T15:41:05;37.95;;;16.73;;
43678;SDS011;29279;50.858;4.392;2022-12-18T15:43:37;44.10;;;19.48;;
43678;SDS011;29279;50.858;4.392;2022-12-18T15:46:04;40.13;;;19.27;;
43678;SDS011;29279;50.858;4.392;2022-12-18T15:48:48;38.28;;;18.20;;
43678;SDS011;29279;50.858;4.392;2022-12-18T15:51:18;39.13;;;17.92;;
43678;SDS011;29279;50.858;4.392;2022-12-18T15:53:45;39.20;;;17.80;;
43678;SDS011;29279;50.858;4.392;2022-12-18T15:56:13;40.90;;;17.73;;
43678;SDS011;29279;50.858;4.392;2022-12-18T15:58:59;42.53;;;19.30;;
43678;SDS011;29279;50.858;4.392;2022-12-18T16:01:26;38.90;;;19.98;;
43678;SDS011;29279;50.858;4.392;2022-12-18T16:03:54;37.30;;;17.92;;
43678;SDS011;29279;50.858;4.392;2022-12-18T16:06:20;40.25;;;18.60;;
43678;SDS011;29279;50.858;4.392;2022-12-18T16:08:46;47.38;;;20.77;;
43678;SDS011;29279;50.858;4.392;2022-12-18T16:16:33;43.20;;;18.27;;
43678;SDS011;29279;50.858;4.392;2022-12-18T16:18:58;40.45;;;16.92;;
43678;SDS011;29279;50.858;4.392;2022-12-18T16:21:24;37.88;;;17.45;;
43678;SDS011;29279;50.858;4.392;2022-12-18T16:23:50;39.00;;;17.58;;
43678;SDS011;29279;50.858;4.392;2022-12-18T16:26:15;44.03;;;17.67;;
43678;SDS011;29279;50.858;4.392;2022-12-18T16:28:41;36.85;;;17.10;;
43678;SDS011;29279;50.858;4.392;2022-12-18T16:31:07;40.70;;;17.25;;
43678;SDS011;29279;50.858;4.392;2022-12-18T16:33:33;38.70;;;15.90;;
43678;SDS011;29279;50.858;4.392;2022-12-18T16:35:59;41.13;;;18.67;;
43678;SDS011;29279;50.858;4.392;2022-12-18T16:38:24;34.08;;;16.02;;
43678;SDS011;29279;50.858;4.392;2022-12-18T16:40:50;37.72;;;16.50;;
43678;SDS011;29279;50.858;4.392;2022-12-18T16:43:34;39.30;;;18.92;;
43678;SDS011;29279;50.858;4.392;2022-12-18T16:46:00;45.15;;;18.20;;
43678;SDS011;29279;50.858;4.392;2022-12-18T16:48:25;38.38;;;15.85;;
43678;SDS011;29279;50.858;4.392;2022-12-18T16:50:53;38.30;;;17.63;;
43678;SDS011;29279;50.858;4.392;2022-12-18T16:53:28;37.13;;;18.13;;
43678;SDS011;29279;50.858;4.392;2022-12-18T16:55:55;41.92;;;18.73;;
43678;SDS011;29279;50.858;4.392;2022-12-18T16:58:21;39.63;;;16.63;;
43678;SDS011;29279;50.858;4.392;2022-12-18T17:00:47;39.45;;;17.63;;
43678;SDS011;29279;50.858;4.392;2022-12-18T17:03:13;35.55;;;15.27;;
43678;SDS011;29279;50.858;4.392;2022-12-18T17:05:39;35.83;;;16.38;;
43678;SDS011;29279;50.858;4.392;2022-12-18T17:08:04;34.45;;;15.55;;
43678;SDS011;29279;50.858;4.392;2022-12-18T17:10:30;38.78;;;16.95;;
43678;SDS011;29279;50.858;4.392;2022-12-18T17:12:58;33.05;;;15.30;;
43678;SDS011;29279;50.858;4.392;2022-12-18T17:15:25;39.80;;;18.30;;
43678;SDS011;29279;50.858;4.392;2022-12-18T17:17:50;37.08;;;16.35;;
43678;SDS011;29279;50.858;4.392;2022-12-18T17:20:16;36.53;;;14.68;;